Aeroporto :
LOGIN :

Iscrizione | Disclaimer

   EN    FR    IT 

 










Sommario :    VFR   VFR Marginale   IFR   IFR Intensivo   IFR Molto Intensivo
Visibilità : 
Base nubi : 
>= 8 km
>= 3000ft
5 / 8 km
1000 / 3000 ft
1500m / 5 km
500 / 1000 ft
800 / 1500m
200 / 500 ft
< 800m
< 200 ft
Simboli :   Temporali  Nebbia  Neve Forte  Precipitazioni Forti  Vento > 20 kt
SIGMETs :   Varie  Temporali  Ghiacco  Turbolenza  Onda orograficha  Ceneri Vulcaniche






- Altitudine del aeroporto : 863 ft
- Codice IATA : ZAZ


LEZG - Zaragoza Aragon

ULTIMO METAR :
  • 200130Z 11007KT CAVOK 03/03 Q1013

METARs OBSOLETI :
  • 200100Z 10006KT CAVOK 04/03 Q1013
  • 200030Z 11006KT CAVOK 04/03 Q1014
  • 200000Z 11004KT CAVOK 03/03 Q1014
  • 192330Z 09003KT CAVOK 04/03 Q1014
  • 192300Z 08003KT CAVOK 03/03 Q1014

TAF TAF LEZG
Valido dal 20 a 00 ore il 21 a 00 ore UTC


192300Z 2000/2024 11007KT 9999 FEW050 TX13/2013Z TN03/2006Z



MetMap, La meteo Aeronautica in un colpo d'occhio ! - Copyright ORBIFLY Dicembre 2007 - Disclaimer

ORBIFLY MET'MAP TEAM :

Programmazione e sviluppo : Alexandra Zaïnal
Concezione e sviluppo : Baudouin d'Aumeries
Co-Programmazione e sviluppo : Marc-Olivier Méhu
Supporto tecnico e logistico : Manuel Goepfert
Aiuto per la traduzione : Arnaldo La Scala

Contatto : metmap@orbifly.com




FONTI E CREDITI :

   NOAA